createdAt,value
2023-04-18T00:01:01.734Z,8.15
2023-04-18T00:04:05.139Z,8.15
2023-04-18T00:07:07.992Z,8.11
2023-04-18T00:10:10.751Z,8.04
2023-04-18T00:13:14.642Z,7.98
2023-04-18T00:16:17.230Z,7.94
2023-04-18T00:19:20.079Z,7.90
2023-04-18T00:22:22.757Z,7.86
2023-04-18T00:25:25.417Z,7.79
2023-04-18T00:28:29.435Z,7.77
2023-04-18T00:31:32.499Z,7.70
2023-04-18T00:34:35.032Z,7.67
2023-04-18T00:37:38.121Z,7.63
2023-04-18T00:40:41.091Z,7.61
2023-04-18T00:43:45.023Z,7.60
2023-04-18T00:46:48.202Z,7.59
2023-04-18T00:49:50.751Z,7.55
2023-04-18T00:52:53.266Z,7.53
2023-04-18T00:55:56.049Z,7.50
2023-04-18T00:59:00.251Z,7.48
2023-04-18T01:02:03.794Z,7.48
2023-04-18T01:05:07.227Z,7.48
2023-04-18T01:08:09.809Z,7.48
2023-04-18T01:11:12.388Z,7.47
2023-04-18T01:14:16.329Z,7.47
2023-04-18T01:17:19.231Z,7.47
2023-04-18T01:20:22.656Z,7.45
2023-04-18T01:23:25.809Z,7.46
2023-04-18T01:26:29.929Z,7.43
2023-04-18T01:29:32.495Z,7.42
2023-04-18T01:32:35.008Z,7.40
2023-04-18T01:35:37.540Z,7.38
2023-04-18T01:38:40.112Z,7.36
2023-04-18T01:41:44.004Z,7.34
2023-04-18T01:44:46.576Z,7.31
2023-04-18T01:47:49.206Z,7.25
2023-04-18T01:50:51.740Z,7.21
2023-04-18T01:53:54.338Z,7.17
2023-04-18T01:56:58.232Z,7.15
2023-04-18T02:00:01.741Z,7.10
2023-04-18T02:03:04.618Z,7.05
2023-04-18T02:06:07.871Z,7.03
2023-04-18T02:09:10.728Z,6.99
2023-04-18T02:12:14.582Z,6.95
2023-04-18T02:15:17.066Z,6.93
2023-04-18T02:18:19.598Z,6.88
2023-04-18T02:21:22.636Z,6.84
2023-04-18T02:24:25.201Z,6.80
2023-04-18T02:27:29.100Z,6.73
2023-04-18T02:30:31.611Z,6.70
2023-04-18T02:33:34.166Z,6.66
2023-04-18T02:36:36.760Z,6.62
2023-04-18T02:39:39.299Z,6.57
2023-04-18T02:42:43.203Z,6.54
2023-04-18T02:45:45.799Z,6.49
2023-04-18T02:48:48.384Z,6.46
2023-04-18T02:51:50.991Z,6.42
2023-04-18T02:54:53.539Z,6.40
2023-04-18T02:57:57.807Z,6.37
2023-04-18T03:01:00.595Z,6.32
2023-04-18T03:04:03.249Z,6.28
2023-04-18T03:07:05.822Z,6.23
2023-04-18T03:10:08.867Z,6.21
2023-04-18T03:13:12.762Z,6.21
2023-04-18T03:16:15.828Z,6.18
2023-04-18T03:19:18.470Z,6.15
2023-04-18T03:22:20.991Z,6.12
2023-04-18T03:25:23.504Z,6.07
2023-04-18T03:28:27.386Z,6.02
2023-04-18T03:31:29.953Z,6.00
2023-04-18T03:34:32.507Z,5.97
2023-04-18T03:37:35.145Z,5.96
2023-04-18T03:40:37.706Z,5.94
2023-04-18T03:43:41.634Z,5.90
2023-04-18T03:46:44.189Z,5.86
2023-04-18T03:49:46.742Z,5.84
2023-04-18T03:52:49.269Z,5.83
2023-04-18T03:55:51.819Z,5.82
2023-04-18T03:58:55.696Z,5.84
2023-04-18T04:01:58.376Z,5.84
2023-04-18T04:05:02.561Z,5.86
2023-04-18T04:08:06.717Z,5.88
2023-04-18T04:11:09.378Z,5.90
2023-04-18T04:14:13.487Z,5.89
2023-04-18T04:17:16.382Z,5.92
2023-04-18T04:20:24.093Z,5.91
2023-04-18T04:23:26.784Z,5.93
2023-04-18T04:26:30.676Z,5.94
2023-04-18T04:29:35.209Z,5.94
2023-04-18T04:32:38.901Z,5.96
2023-04-18T04:35:41.777Z,5.97
2023-04-18T04:38:44.951Z,5.97
2023-04-18T04:41:47.521Z,6.00
2023-04-18T04:44:53.604Z,6.02
2023-04-18T04:47:56.174Z,6.02
2023-04-18T04:50:59.509Z,6.03
2023-04-18T04:54:02.046Z,6.02
2023-04-18T04:57:05.269Z,5.99
2023-04-18T05:00:11.360Z,5.96
2023-04-18T05:03:14.065Z,5.94
2023-04-18T05:06:20.517Z,5.92
2023-04-18T05:09:23.079Z,5.88
2023-04-18T05:12:26.755Z,5.86
2023-04-18T05:15:30.633Z,5.84
2023-04-18T05:18:35.124Z,5.80
2023-04-18T05:21:37.883Z,5.78
2023-04-18T05:24:41.124Z,5.76
2023-04-18T05:27:43.994Z,5.75
2023-04-18T05:30:47.921Z,5.75
2023-04-18T05:33:50.455Z,5.75
2023-04-18T05:36:53.038Z,5.74
2023-04-18T05:39:55.675Z,5.73
2023-04-18T05:42:58.220Z,5.73
2023-04-18T05:46:02.109Z,5.75
2023-04-18T05:49:04.729Z,5.75
2023-04-18T05:52:07.294Z,5.77
2023-04-18T05:55:10.520Z,5.76
2023-04-18T05:58:13.100Z,5.75
2023-04-18T06:01:18.510Z,5.76
2023-04-18T06:04:21.666Z,5.75
2023-04-18T06:07:25.350Z,5.76
2023-04-18T06:10:27.853Z,5.77
2023-04-18T06:13:30.332Z,5.81
2023-04-18T06:16:34.319Z,5.81
2023-04-18T06:19:36.987Z,5.81
2023-04-18T06:22:39.573Z,5.84
2023-04-18T06:25:42.272Z,5.85
2023-04-18T06:28:44.810Z,5.88
2023-04-18T06:31:48.707Z,5.88
2023-04-18T06:34:52.804Z,5.87
2023-04-18T06:37:55.522Z,5.88
2023-04-18T06:40:58.116Z,5.87
2023-04-18T06:44:04.199Z,5.90
2023-04-18T06:47:08.628Z,5.90
2023-04-18T06:50:11.593Z,5.90
2023-04-18T06:53:14.183Z,5.91
2023-04-18T06:56:16.759Z,5.93
2023-04-18T06:59:21.331Z,5.95
2023-04-18T07:02:25.291Z,5.97
2023-04-18T07:05:27.876Z,6.01
2023-04-18T07:08:30.725Z,6.06
2023-04-18T07:11:33.296Z,6.13
2023-04-18T07:14:35.878Z,6.18
2023-04-18T07:17:39.873Z,6.23
2023-04-18T07:20:42.654Z,6.29
2023-04-18T07:23:45.176Z,6.33
2023-04-18T07:26:47.741Z,6.34
2023-04-18T07:29:50.340Z,6.34
2023-04-18T07:32:54.304Z,6.33
2023-04-18T07:35:56.953Z,6.33
2023-04-18T07:38:59.499Z,6.34
2023-04-18T07:42:02.328Z,6.35
2023-04-18T07:45:05.770Z,6.38
2023-04-18T07:48:09.717Z,6.39
2023-04-18T07:51:12.294Z,6.40
2023-04-18T07:54:14.866Z,6.45
2023-04-18T07:57:17.403Z,6.49
2023-04-18T08:00:20.399Z,6.55
2023-04-18T08:03:24.492Z,6.63
2023-04-18T08:06:27.429Z,6.71
2023-04-18T08:09:30.022Z,6.77
2023-04-18T08:12:32.570Z,6.77
2023-04-18T08:15:35.207Z,6.81
2023-04-18T08:18:39.095Z,6.86
2023-04-18T08:21:41.709Z,6.92
2023-04-18T08:25:01.029Z,6.99
2023-04-18T08:28:06.647Z,7.00
2023-04-18T08:31:13.009Z,7.01
2023-04-18T08:34:16.914Z,7.04
2023-04-18T08:37:19.506Z,7.07
2023-04-18T08:40:22.154Z,7.12
2023-04-18T08:43:25.340Z,7.15
2023-04-18T08:46:29.969Z,7.19
2023-04-18T08:49:33.917Z,7.27
2023-04-18T08:52:37.631Z,7.39
2023-04-18T08:55:40.455Z,7.55
2023-04-18T08:58:45.085Z,7.66
2023-04-18T09:01:52.814Z,7.78
2023-04-18T09:04:57.379Z,7.79
2023-04-18T09:07:59.949Z,7.87
2023-04-18T09:11:24.010Z,7.97
2023-04-18T09:14:27.225Z,8.05
2023-04-18T09:17:33.921Z,8.12
2023-04-18T09:20:39.907Z,8.16
2023-04-18T09:23:42.411Z,8.20
2023-04-18T09:26:44.922Z,8.30
2023-04-18T09:29:49.336Z,8.42
2023-04-18T09:32:58.261Z,8.48
2023-04-18T09:36:20.815Z,8.60
2023-04-18T09:39:28.118Z,8.82
2023-04-18T09:42:32.025Z,8.93
2023-04-18T09:45:34.560Z,8.96
2023-04-18T09:48:37.162Z,9.00
2023-04-18T09:51:41.416Z,9.15
2023-04-18T09:54:44.862Z,9.25
2023-04-18T09:57:49.289Z,9.30
2023-04-18T10:00:52.169Z,9.33
2023-04-18T10:03:54.810Z,9.37
2023-04-18T10:06:58.838Z,9.30
2023-04-18T10:10:01.366Z,9.27
2023-04-18T10:13:03.892Z,9.20
2023-04-18T10:16:06.886Z,9.14
2023-04-18T10:19:23.561Z,9.16
2023-04-18T10:22:29.366Z,9.15
2023-04-18T10:25:49.182Z,9.14
2023-04-18T10:28:54.439Z,9.21
2023-04-18T10:31:57.366Z,9.38
2023-04-18T10:35:00.483Z,9.59
2023-04-18T10:38:04.324Z,9.66
2023-04-18T10:41:23.597Z,9.70
2023-04-18T10:44:27.464Z,9.66
2023-04-18T10:47:30.073Z,9.62
2023-04-18T10:50:32.825Z,9.61
2023-04-18T10:53:36.696Z,9.56
2023-04-18T10:56:39.563Z,9.52
2023-04-18T10:59:43.731Z,9.51
2023-04-18T11:02:50.267Z,9.49
2023-04-18T11:05:52.965Z,9.51
2023-04-18T11:09:12.440Z,9.55
2023-04-18T11:12:14.984Z,9.54
2023-04-18T11:15:21.218Z,9.53
2023-04-18T11:18:23.934Z,9.49
2023-04-18T11:21:30.319Z,9.50
2023-04-18T11:24:34.888Z,9.48
2023-04-18T11:27:37.431Z,9.54
2023-04-18T11:30:40.334Z,9.59
2023-04-18T11:33:42.854Z,9.64
2023-04-18T11:36:45.417Z,9.63
2023-04-18T11:39:49.325Z,9.60
2023-04-18T11:42:51.867Z,9.58
2023-04-18T11:45:54.984Z,9.57
2023-04-18T11:48:57.587Z,9.61
2023-04-18T11:52:01.081Z,9.65
2023-04-18T11:55:14.011Z,9.67
2023-04-18T11:58:16.760Z,9.65
2023-04-18T12:01:19.700Z,9.69
2023-04-18T12:04:22.531Z,9.81
2023-04-18T12:07:35.966Z,9.88
2023-04-18T12:10:46.069Z,9.94
2023-04-18T12:13:48.668Z,9.98
2023-04-18T12:16:51.192Z,10.07
2023-04-18T12:19:55.391Z,10.10
2023-04-18T12:22:58.474Z,10.11
2023-04-18T12:26:03.636Z,10.11
2023-04-18T12:29:06.192Z,10.11
2023-04-18T12:32:08.698Z,10.09
2023-04-18T12:35:11.276Z,10.13
2023-04-18T12:38:13.785Z,10.20
2023-04-18T12:41:17.736Z,10.25
2023-04-18T12:44:20.784Z,10.34
2023-04-18T12:47:23.336Z,10.39
2023-04-18T12:50:26.597Z,10.56
2023-04-18T12:53:29.182Z,10.70
2023-04-18T12:56:33.093Z,10.77
2023-04-18T12:59:35.681Z,10.85
2023-04-18T13:02:38.794Z,10.89
2023-04-18T13:05:41.623Z,10.92
2023-04-18T13:08:44.494Z,10.91
2023-04-18T13:11:49.608Z,10.88
2023-04-18T13:14:52.277Z,10.85
2023-04-18T13:17:55.826Z,10.87
2023-04-18T13:20:58.404Z,10.87
2023-04-18T13:24:00.945Z,10.88
2023-04-18T13:27:10.213Z,10.88
2023-04-18T13:30:13.053Z,10.88
2023-04-18T13:33:15.704Z,10.85
2023-04-18T13:36:18.294Z,10.83
2023-04-18T13:39:21.384Z,10.81
2023-04-18T13:42:25.312Z,10.80
2023-04-18T13:45:28.249Z,10.83
2023-04-18T13:48:30.898Z,10.86
2023-04-18T13:51:33.804Z,10.90
2023-04-18T13:54:37.272Z,10.93
2023-04-18T13:57:41.235Z,10.90
2023-04-18T14:00:43.833Z,10.90
2023-04-18T14:03:47.269Z,10.92
2023-04-18T14:06:50.059Z,10.92
2023-04-18T14:09:53.823Z,10.97
2023-04-18T14:12:58.006Z,11.02
2023-04-18T14:16:00.718Z,11.08
2023-04-18T14:19:03.349Z,11.17
2023-04-18T14:22:07.118Z,11.26
2023-04-18T14:25:10.865Z,11.33
2023-04-18T14:28:15.609Z,11.40
2023-04-18T14:31:18.156Z,11.42
2023-04-18T14:34:20.775Z,11.46
2023-04-18T14:37:23.332Z,11.46
2023-04-18T14:40:25.924Z,11.46
2023-04-18T14:43:29.909Z,11.49
2023-04-18T14:46:32.499Z,11.49
2023-04-18T14:49:35.119Z,11.51
2023-04-18T14:52:37.709Z,11.51
2023-04-18T14:55:40.424Z,11.54
2023-04-18T14:58:44.802Z,11.55
2023-04-18T15:01:47.472Z,11.51
2023-04-18T15:04:50.935Z,11.50
2023-04-18T15:07:53.499Z,11.49
2023-04-18T15:10:56.182Z,11.48
2023-04-18T15:14:00.131Z,11.48
2023-04-18T15:17:02.883Z,11.48
2023-04-18T15:20:07.275Z,11.51
2023-04-18T15:23:13.491Z,11.54
2023-04-18T15:26:16.424Z,11.54
2023-04-18T15:29:20.621Z,11.57
2023-04-18T15:32:23.246Z,11.58
2023-04-18T15:35:26.194Z,11.61
2023-04-18T15:38:29.668Z,11.65
2023-04-18T15:41:34.792Z,11.70
2023-04-18T15:44:38.699Z,11.77
2023-04-18T15:47:41.636Z,11.82
2023-04-18T15:50:44.222Z,11.84
2023-04-18T15:53:46.751Z,11.87
2023-04-18T15:56:49.286Z,11.86
2023-04-18T15:59:53.133Z,11.88
2023-04-18T16:02:55.853Z,11.94
2023-04-18T16:05:58.482Z,12.01
2023-04-18T16:09:01.041Z,12.04
2023-04-18T16:12:04.624Z,12.03
2023-04-18T16:15:09.782Z,12.02
2023-04-18T16:18:12.326Z,12.05
2023-04-18T16:21:15.147Z,12.08
2023-04-18T16:24:17.741Z,12.14
2023-04-18T16:27:20.513Z,12.23
2023-04-18T16:30:24.388Z,12.26
2023-04-18T16:33:27.073Z,12.22
2023-04-18T16:36:29.741Z,12.17
2023-04-18T16:39:32.270Z,12.16
2023-04-18T16:42:34.812Z,12.13
2023-04-18T16:45:38.740Z,12.10
2023-04-18T16:48:41.707Z,12.10
2023-04-18T16:51:44.232Z,12.12
2023-04-18T16:54:46.825Z,12.14
2023-04-18T16:57:49.349Z,12.16
2023-04-18T17:00:53.668Z,12.19
2023-04-18T17:03:56.299Z,12.20
2023-04-18T17:06:59.023Z,12.16
2023-04-18T17:10:01.593Z,12.16
2023-04-18T17:13:04.411Z,12.14
2023-04-18T17:16:08.870Z,12.17
2023-04-18T17:19:11.485Z,12.17
2023-04-18T17:22:14.091Z,12.20
2023-04-18T17:25:16.681Z,12.22
2023-04-18T17:28:19.420Z,12.21
2023-04-18T17:31:23.415Z,12.21
2023-04-18T17:34:26.900Z,12.19
2023-04-18T17:37:29.422Z,12.20
2023-04-18T17:40:31.911Z,12.19
2023-04-18T17:43:34.440Z,12.17
2023-04-18T17:46:38.416Z,12.19
2023-04-18T17:49:40.956Z,12.19
2023-04-18T17:52:43.919Z,12.19
2023-04-18T17:55:50.343Z,12.18
2023-04-18T17:58:55.285Z,12.16
2023-04-18T18:02:00.377Z,12.15
2023-04-18T18:05:02.899Z,12.12
2023-04-18T18:08:05.782Z,12.13
2023-04-18T18:11:08.920Z,12.13
2023-04-18T18:14:11.467Z,12.10
2023-04-18T18:17:15.313Z,12.09
2023-04-18T18:20:17.913Z,12.08
2023-04-18T18:23:20.471Z,12.07
2023-04-18T18:26:22.964Z,12.04
2023-04-18T18:29:25.541Z,12.00
2023-04-18T18:32:29.519Z,11.98
2023-04-18T18:35:32.101Z,11.95
2023-04-18T18:38:34.652Z,11.90
2023-04-18T18:41:37.144Z,11.87
2023-04-18T18:44:39.711Z,11.84
2023-04-18T18:47:43.604Z,11.83
2023-04-18T18:50:46.110Z,11.80
2023-04-18T18:53:48.633Z,11.77
2023-04-18T18:56:51.692Z,11.74
2023-04-18T18:59:55.853Z,11.71
2023-04-18T19:03:00.235Z,11.69
2023-04-18T19:06:04.186Z,11.68
2023-04-18T19:09:07.116Z,11.66
2023-04-18T19:12:09.918Z,11.63
2023-04-18T19:15:12.965Z,11.61
2023-04-18T19:18:18.228Z,11.58
2023-04-18T19:21:21.065Z,11.56
2023-04-18T19:24:23.643Z,11.53
2023-04-18T19:27:26.907Z,11.48
2023-04-18T19:30:29.622Z,11.47
2023-04-18T19:33:33.485Z,11.43
2023-04-18T19:36:36.015Z,11.42
2023-04-18T19:39:38.571Z,11.40
2023-04-18T19:42:41.153Z,11.37
2023-04-18T19:45:43.750Z,11.35
2023-04-18T19:48:47.624Z,11.33
2023-04-18T19:51:51.371Z,11.30
2023-04-18T19:54:53.982Z,11.28
2023-04-18T19:57:56.692Z,11.24
2023-04-18T20:00:59.349Z,11.21
2023-04-18T20:04:03.749Z,11.21
2023-04-18T20:07:06.510Z,11.18
2023-04-18T20:10:10.321Z,11.16
2023-04-18T20:13:12.893Z,11.14
2023-04-18T20:16:16.764Z,11.12
2023-04-18T20:19:20.675Z,11.09
2023-04-18T20:22:24.794Z,11.05
2023-04-18T20:25:27.385Z,10.99
2023-04-18T20:28:30.185Z,10.91
2023-04-18T20:31:32.758Z,10.85
2023-04-18T20:34:37.630Z,10.79
2023-04-18T20:37:41.262Z,10.75
2023-04-18T20:40:44.793Z,10.70
2023-04-18T20:43:47.361Z,10.65
2023-04-18T20:46:49.940Z,10.60
2023-04-18T20:49:53.789Z,10.55
2023-04-18T20:52:56.363Z,10.51
2023-04-18T20:55:58.934Z,10.46
2023-04-18T20:59:01.473Z,10.41
2023-04-18T21:02:04.382Z,10.36
2023-04-18T21:05:08.975Z,10.31
2023-04-18T21:08:11.766Z,10.27
2023-04-18T21:11:14.276Z,10.24
2023-04-18T21:14:17.222Z,10.22
2023-04-18T21:17:20.113Z,10.18
2023-04-18T21:20:24.214Z,10.19
2023-04-18T21:23:26.740Z,10.17
2023-04-18T21:26:29.295Z,10.15
2023-04-18T21:29:31.892Z,10.14
2023-04-18T21:32:34.478Z,10.11
2023-04-18T21:35:38.436Z,10.07
2023-04-18T21:38:41.000Z,10.06
2023-04-18T21:41:43.572Z,10.03
2023-04-18T21:44:46.162Z,9.99
2023-04-18T21:47:49.486Z,9.96
2023-04-18T21:50:56.005Z,9.93
2023-04-18T21:53:58.921Z,9.88
2023-04-18T21:57:02.478Z,9.84
2023-04-18T22:00:07.316Z,9.81
2023-04-18T22:03:12.091Z,9.77
2023-04-18T22:06:16.557Z,9.73
2023-04-18T22:09:19.326Z,9.70
2023-04-18T22:12:22.038Z,9.68
2023-04-18T22:15:26.779Z,9.63
2023-04-18T22:18:30.498Z,9.59
2023-04-18T22:21:34.408Z,9.58
2023-04-18T22:24:37.002Z,9.54
2023-04-18T22:27:39.546Z,9.52
2023-04-18T22:30:42.147Z,9.47
2023-04-18T22:33:44.726Z,9.42
2023-04-18T22:36:48.600Z,9.39
2023-04-18T22:39:51.101Z,9.31
2023-04-18T22:42:54.248Z,9.26
2023-04-18T22:45:56.835Z,9.24
2023-04-18T22:48:59.561Z,9.21
2023-04-18T22:52:03.526Z,9.17
2023-04-18T22:55:06.860Z,9.13
2023-04-18T22:58:09.858Z,9.11
2023-04-18T23:01:12.476Z,9.10
2023-04-18T23:04:15.356Z,9.09
2023-04-18T23:07:19.521Z,9.08
2023-04-18T23:10:22.486Z,9.04
2023-04-18T23:13:25.076Z,8.99
2023-04-18T23:16:28.152Z,8.96
2023-04-18T23:19:30.693Z,8.92
2023-04-18T23:22:34.580Z,8.91
2023-04-18T23:25:37.111Z,8.88
2023-04-18T23:28:39.722Z,8.81
2023-04-18T23:31:42.329Z,8.83
2023-04-18T23:34:46.086Z,8.79
2023-04-18T23:37:50.139Z,8.77
2023-04-18T23:40:52.714Z,8.77
2023-04-18T23:43:55.264Z,8.77
2023-04-18T23:46:57.785Z,8.72
2023-04-18T23:50:00.361Z,8.71
2023-04-18T23:53:04.272Z,8.67
2023-04-18T23:56:07.793Z,8.64
2023-04-18T23:59:10.388Z,8.63
